This is the latest recevied weather packets stored in our database for station/object KD9YTS-13. If no packets are shown the sender has not sent any weather packets the latest 10 day(s).
| Time | Temp. | Humidity | Pressure | Rain* | Wind** | Luminosity | Snow |
|---|---|---|---|---|---|---|---|
| 1777836982 | -17.78° C | 100% | - | 0 mm | - | - | - |
| 1777835783 | -17.78° C | 100% | - | 0 mm | - | - | - |
| 1777834583 | -17.78° C | 100% | - | 0 mm | - | - | - |
| 1777833382 | 20.56° C | 3% | - | 0 mm | - | - | - |
| 1777832182 | -17.78° C | 100% | - | 0 mm | - | - | - |
| 1777830983 | -17.78° C | 100% | - | 0 mm | - | - | - |
| 1777829782 | -17.78° C | 100% | - | 0 mm | - | - | - |
| 1777827383 | 18.33° C | 3% | - | 0 mm | - | - | - |
| 1777826183 | 19.44° C | 3% | - | 0 mm | - | - | - |
| 1777824983 | -17.78° C | 100% | - | 0 mm | - | - | - |
| 1777823782 | -17.78° C | 100% | - | 0 mm | - | - | - |
| 1777822582 | -17.78° C | 100% | - | 0 mm | - | - | - |
| 1777821382 | 17.78° C | 4% | - | 0 mm | - | - | - |
| 1777820183 | 16.67° C | 4% | - | 0 mm | - | - | - |
| 1777818982 | -17.78° C | 100% | - | 0 mm | - | - | - |
| 1777816582 | -17.78° C | 100% | - | 0 mm | - | - | - |
| 1777815383 | 15° C | 4% | - | 0 mm | - | - | - |
| 1777812983 | -17.78° C | 100% | - | 0 mm | - | - | - |
| 1777811783 | -17.78° C | 100% | - | 0 mm | - | - | - |
| 1777810582 | 9.44° C | 5% | - | 0 mm | - | - | - |
| 1777809383 | 8.89° C | 5% | - | 0 mm | - | - | - |
| 1777808183 | -17.78° C | 100% | - | 0 mm | - | - | - |
| 1777805782 | -17.78° C | 100% | - | 0 mm | - | - | - |
| 1777804582 | 9.44° C | 5% | - | 0 mm | - | - | - |
| 1777802182 | -17.78° C | 100% | - | 0 mm | - | - | - |
* Rain latest hour (hover to see other rain measurements)
** Current wind speed in m/s (hover to see current wind gust speed)